createdAt,value
2019-01-09T00:01:29.800Z,29.97
2019-01-09T00:03:59.285Z,29.20
2019-01-09T00:06:28.792Z,32.23
2019-01-09T00:08:58.247Z,25.60
2019-01-09T00:11:27.683Z,30.90
2019-01-09T00:13:57.176Z,22.57
2019-01-09T00:16:26.619Z,29.90
2019-01-09T00:18:56.313Z,28.63
2019-01-09T00:21:25.819Z,35.10
2019-01-09T00:23:55.293Z,21.40
2019-01-09T00:26:24.734Z,21.37
2019-01-09T00:28:54.248Z,31.47
2019-01-09T00:31:23.877Z,33.73
2019-01-09T00:33:53.485Z,32.43
2019-01-09T00:36:22.928Z,26.10
2019-01-09T00:38:52.365Z,19.10
2019-01-09T00:41:21.867Z,33.13
2019-01-09T00:43:51.305Z,17.97
2019-01-09T00:46:20.734Z,24.87
2019-01-09T00:48:50.230Z,32.07
2019-01-09T00:51:19.863Z,30.77
2019-01-09T00:53:49.294Z,25.77
2019-01-09T00:56:18.785Z,30.73
2019-01-09T00:58:48.233Z,32.37
2019-01-09T01:01:17.768Z,27.80
2019-01-09T01:04:21.689Z,34.17
2019-01-09T01:07:23.934Z,24.67
2019-01-09T01:10:31.260Z,30.63
2019-01-09T01:13:46.872Z,33.47
2019-01-09T01:16:53.309Z,28.60
2019-01-09T01:19:47.708Z,32.57
2019-01-09T01:23:10.333Z,31.40
2019-01-09T01:26:18.552Z,34.00
2019-01-09T01:29:36.789Z,34.97
2019-01-09T01:32:29.601Z,22.10
2019-01-09T01:35:24.707Z,33.73
2019-01-09T01:38:27.990Z,33.30
2019-01-09T01:41:38.573Z,25.23
2019-01-09T01:44:30.505Z,31.93
2019-01-09T01:47:53.118Z,31.10
2019-01-09T01:50:52.918Z,32.73
2019-01-09T01:54:07.056Z,19.73
2019-01-09T01:57:19.184Z,28.67
2019-01-09T02:00:01.086Z,31.20
2019-01-09T02:03:06.731Z,34.70
2019-01-09T02:06:04.334Z,36.10
2019-01-09T02:09:02.228Z,33.13
2019-01-09T02:12:20.830Z,36.87
2019-01-09T02:15:35.488Z,32.70
2019-01-09T02:18:22.354Z,35.93
2019-01-09T02:21:19.066Z,36.87
2019-01-09T02:24:50.970Z,35.30
2019-01-09T02:27:57.426Z,37.17
2019-01-09T02:31:28.972Z,35.50
2019-01-09T02:33:58.309Z,34.30
2019-01-09T02:36:27.695Z,30.93
2019-01-09T02:38:56.993Z,33.17
2019-01-09T02:41:26.364Z,34.17
2019-01-09T02:43:55.689Z,35.13
2019-01-09T02:46:25.047Z,30.77
2019-01-09T02:48:54.466Z,33.47
2019-01-09T02:51:23.945Z,33.53
2019-01-09T02:53:53.305Z,28.73
2019-01-09T02:56:22.639Z,33.87
2019-01-09T02:58:52.020Z,35.53
2019-01-09T03:01:21.322Z,31.70
2019-01-09T03:03:50.802Z,33.60
2019-01-09T03:06:23.182Z,15.87
2019-01-09T03:08:51.175Z,30.97
2019-01-09T03:11:20.542Z,26.33
2019-01-09T03:13:49.846Z,29.50
2019-01-09T03:16:19.203Z,32.83
2019-01-09T03:18:48.517Z,25.87
2019-01-09T03:21:17.880Z,31.27
2019-01-09T03:23:47.238Z,29.50
2019-01-09T03:26:16.652Z,31.50
2019-01-09T03:28:45.966Z,21.77
2019-01-09T03:31:15.440Z,21.00
2019-01-09T03:33:44.827Z,32.47
2019-01-09T03:36:14.164Z,21.53
2019-01-09T03:38:43.555Z,23.63
2019-01-09T03:41:12.874Z,23.13
2019-01-09T03:43:42.306Z,25.93
2019-01-09T03:46:11.614Z,31.00
2019-01-09T03:48:40.920Z,32.93
2019-01-09T03:51:10.288Z,34.93
2019-01-09T03:53:39.665Z,33.43
2019-01-09T03:56:09.059Z,33.83
2019-01-09T03:58:38.367Z,33.67
2019-01-09T04:01:07.689Z,26.80
2019-01-09T04:03:37.068Z,33.83
2019-01-09T04:06:06.401Z,29.97
2019-01-09T04:08:35.715Z,29.10
2019-01-09T04:11:05.143Z,31.97
2019-01-09T04:13:34.530Z,31.67
2019-01-09T04:16:03.986Z,31.10
2019-01-09T04:18:33.362Z,31.60
2019-01-09T04:21:02.686Z,32.03
2019-01-09T04:23:32.044Z,33.53
2019-01-09T04:26:01.352Z,32.07
2019-01-09T04:28:30.725Z,33.07
2019-01-09T04:31:00.032Z,32.30
2019-01-09T04:33:29.461Z,32.47
2019-01-09T04:35:58.770Z,33.27
2019-01-09T04:38:28.068Z,33.70
2019-01-09T04:40:57.394Z,34.60
2019-01-09T04:43:26.925Z,35.07
2019-01-09T04:45:56.268Z,35.83
2019-01-09T04:48:25.647Z,34.93
2019-01-09T04:50:55.025Z,36.10
2019-01-09T04:53:24.569Z,34.93
2019-01-09T04:55:54.008Z,36.53
2019-01-09T04:58:23.319Z,34.80
2019-01-09T05:00:52.635Z,35.23
2019-01-09T05:03:22.014Z,32.23
2019-01-09T05:05:51.343Z,32.47
2019-01-09T05:08:20.727Z,34.30
2019-01-09T05:10:50.146Z,36.60
2019-01-09T05:13:19.586Z,35.20
2019-01-09T05:15:49.007Z,35.13
2019-01-09T05:18:18.534Z,34.00
2019-01-09T05:20:47.946Z,34.67
2019-01-09T05:23:17.252Z,35.50
2019-01-09T05:25:46.602Z,34.43
2019-01-09T05:28:15.971Z,34.93
2019-01-09T05:30:45.326Z,32.30
2019-01-09T05:33:14.700Z,34.20
2019-01-09T05:35:44.111Z,34.40
2019-01-09T05:38:13.482Z,34.50
2019-01-09T05:40:42.831Z,34.80
2019-01-09T05:43:12.154Z,34.10
2019-01-09T05:45:41.492Z,34.43
2019-01-09T05:48:10.868Z,34.50
2019-01-09T05:50:40.206Z,34.80
2019-01-09T05:53:09.515Z,34.27
2019-01-09T05:55:39.037Z,33.67
2019-01-09T05:58:08.393Z,35.60
2019-01-09T06:00:37.763Z,35.97
2019-01-09T06:03:07.278Z,34.97
2019-01-09T06:05:36.667Z,33.03
2019-01-09T06:08:05.984Z,33.67
2019-01-09T06:10:35.623Z,33.57
2019-01-09T06:13:05.007Z,33.83
2019-01-09T06:15:34.309Z,33.07
2019-01-09T06:18:03.686Z,34.57
2019-01-09T06:20:33.006Z,35.13
2019-01-09T06:23:02.332Z,35.17
2019-01-09T06:25:31.698Z,36.17
2019-01-09T06:28:01.054Z,29.57
2019-01-09T06:30:30.695Z,32.43
2019-01-09T06:33:00.183Z,34.67
2019-01-09T06:35:29.487Z,35.00
2019-01-09T06:37:58.885Z,34.27
2019-01-09T06:40:28.361Z,33.57
2019-01-09T06:42:57.845Z,34.20
2019-01-09T06:45:27.320Z,35.87
2019-01-09T06:47:56.744Z,34.50
2019-01-09T06:50:26.178Z,34.50
2019-01-09T06:52:55.543Z,38.50
2019-01-09T06:55:25.294Z,33.43
2019-01-09T06:57:54.747Z,35.73
2019-01-09T07:00:24.157Z,33.13
2019-01-09T07:02:53.747Z,31.83
2019-01-09T07:05:23.161Z,36.87
2019-01-09T07:07:52.602Z,34.90
2019-01-09T07:10:22.027Z,34.57
2019-01-09T07:12:51.652Z,35.10
2019-01-09T07:15:21.253Z,34.17
2019-01-09T07:17:50.663Z,34.97
2019-01-09T07:20:20.079Z,35.17
2019-01-09T07:22:49.542Z,35.27
2019-01-09T07:25:18.998Z,36.83
2019-01-09T07:27:48.477Z,36.93
2019-01-09T07:30:17.894Z,35.27
2019-01-09T07:32:47.345Z,37.53
2019-01-09T07:35:16.798Z,35.40
2019-01-09T07:37:46.231Z,38.37
2019-01-09T07:40:15.679Z,35.90
2019-01-09T07:42:45.106Z,36.40
2019-01-09T07:45:14.554Z,36.40
2019-01-09T07:47:44.072Z,36.40
2019-01-09T07:50:13.562Z,37.87
2019-01-09T07:52:42.992Z,34.63
2019-01-09T07:55:12.477Z,36.47
2019-01-09T07:57:41.946Z,35.63
2019-01-09T08:00:12.380Z,35.50
2019-01-09T08:02:41.850Z,37.10
2019-01-09T08:05:11.260Z,36.30
2019-01-09T08:07:40.763Z,33.00
2019-01-09T08:10:11.035Z,36.20
2019-01-09T08:12:40.566Z,35.50
2019-01-09T08:15:10.393Z,34.57
2019-01-09T08:17:39.798Z,36.70
2019-01-09T08:20:09.683Z,31.33
2019-01-09T08:22:39.178Z,35.10
2019-01-09T08:25:08.507Z,33.37
2019-01-09T08:27:38.029Z,33.43
2019-01-09T08:30:09.155Z,34.17
2019-01-09T08:32:38.750Z,37.00
2019-01-09T08:35:08.588Z,36.47
2019-01-09T08:37:37.982Z,36.87
2019-01-09T08:40:09.155Z,35.77
2019-01-09T08:42:38.515Z,34.73
2019-01-09T08:45:08.958Z,33.30
2019-01-09T08:47:38.365Z,35.17
2019-01-09T08:50:09.083Z,34.77
2019-01-09T08:52:38.552Z,34.17
2019-01-09T08:55:09.156Z,32.90
2019-01-09T08:57:38.559Z,32.90
2019-01-09T09:00:10.909Z,32.87
2019-01-09T09:02:40.326Z,33.70
2019-01-09T09:05:10.427Z,35.47
2019-01-09T09:07:40.818Z,34.80
2019-01-09T09:10:12.586Z,33.60
2019-01-09T09:12:42.053Z,34.80
2019-01-09T09:15:13.530Z,35.97
2019-01-09T09:17:42.987Z,34.47
2019-01-09T09:20:12.880Z,35.37
2019-01-09T09:22:42.485Z,36.43
2019-01-09T09:25:11.869Z,36.87
2019-01-09T09:27:41.382Z,35.37
2019-01-09T09:30:12.346Z,35.93
2019-01-09T09:33:00.773Z,37.50
2019-01-09T09:35:30.202Z,36.47
2019-01-09T09:37:59.619Z,36.43
2019-01-09T09:40:29.073Z,35.67
2019-01-09T09:42:58.541Z,37.57
2019-01-09T09:45:27.825Z,36.73
2019-01-09T09:47:57.332Z,37.03
2019-01-09T09:50:26.868Z,37.50
2019-01-09T09:52:56.279Z,37.27
2019-01-09T09:55:25.735Z,37.97
2019-01-09T09:57:55.168Z,34.90
2019-01-09T10:00:24.640Z,33.93
2019-01-09T10:02:54.068Z,34.90
2019-01-09T10:05:23.438Z,33.70
2019-01-09T10:07:52.971Z,34.53
2019-01-09T10:10:23.143Z,34.53
2019-01-09T10:12:52.566Z,37.37
2019-01-09T10:15:21.921Z,37.73
2019-01-09T10:17:51.377Z,36.57
2019-01-09T10:20:20.727Z,34.20
2019-01-09T10:22:50.148Z,35.87
2019-01-09T10:25:19.677Z,34.97
2019-01-09T10:27:49.049Z,35.33
2019-01-09T10:30:19.511Z,36.60
2019-01-09T10:32:49.025Z,35.80
2019-01-09T10:35:18.431Z,33.20
2019-01-09T10:37:48.450Z,35.43
2019-01-09T10:40:19.167Z,34.03
2019-01-09T10:42:48.928Z,35.67
2019-01-09T10:45:20.675Z,33.83
2019-01-09T10:47:50.225Z,34.27
2019-01-09T10:50:20.091Z,33.77
2019-01-09T10:52:49.515Z,33.57
2019-01-09T10:55:19.460Z,33.70
2019-01-09T10:57:48.968Z,33.30
2019-01-09T11:00:23.578Z,36.27
2019-01-09T11:02:52.902Z,34.17
2019-01-09T11:05:22.593Z,34.13
2019-01-09T11:07:51.954Z,35.03
2019-01-09T11:10:21.721Z,33.53
2019-01-09T11:12:51.080Z,32.90
2019-01-09T11:15:20.658Z,33.73
2019-01-09T11:17:50.086Z,33.43
2019-01-09T11:20:21.089Z,34.30
2019-01-09T11:22:50.559Z,32.83
2019-01-09T11:25:25.589Z,33.27
2019-01-09T11:27:54.950Z,34.07
2019-01-09T11:30:24.847Z,34.17
2019-01-09T11:32:54.278Z,34.37
2019-01-09T11:35:25.829Z,33.67
2019-01-09T11:37:55.281Z,35.27
2019-01-09T11:40:24.739Z,35.73
2019-01-09T11:42:54.233Z,35.40
2019-01-09T11:45:23.691Z,37.03
2019-01-09T11:47:53.202Z,36.43
2019-01-09T11:50:22.537Z,36.70
2019-01-09T11:52:52.012Z,37.83
2019-01-09T11:55:21.378Z,36.93
2019-01-09T11:57:50.846Z,34.63
2019-01-09T12:00:23.080Z,36.60
2019-01-09T12:02:52.543Z,38.03
2019-01-09T12:05:22.122Z,35.27
2019-01-09T12:07:51.569Z,36.70
2019-01-09T12:10:29.939Z,35.87
2019-01-09T12:12:53.633Z,37.97
2019-01-09T12:15:23.181Z,37.40
2019-01-09T12:17:52.609Z,37.40
2019-01-09T12:20:22.236Z,37.27
2019-01-09T12:22:51.714Z,38.33
2019-01-09T12:25:21.133Z,37.30
2019-01-09T12:27:50.650Z,38.80
2019-01-09T12:30:25.498Z,37.20
2019-01-09T12:32:55.199Z,37.17
2019-01-09T12:35:24.769Z,35.90
2019-01-09T12:37:54.251Z,39.90
2019-01-09T12:40:42.686Z,41.47
2019-01-09T12:43:12.067Z,39.37
2019-01-09T12:45:41.470Z,41.27
2019-01-09T12:48:10.871Z,39.60
2019-01-09T12:50:40.315Z,41.00
2019-01-09T12:53:09.755Z,40.83
2019-01-09T12:58:33.683Z,38.37
2019-01-09T13:01:03.143Z,39.90
2019-01-09T13:03:32.625Z,41.57
2019-01-09T13:06:02.098Z,38.90
2019-01-09T13:08:31.531Z,40.37
2019-01-09T13:11:00.934Z,41.53
2019-01-09T13:13:30.429Z,40.20
2019-01-09T13:15:59.832Z,38.50
2019-01-09T13:18:29.430Z,41.97
2019-01-09T13:20:59.075Z,38.30
2019-01-09T13:23:28.469Z,37.77
2019-01-09T13:25:57.903Z,42.27
2019-01-09T13:28:28.424Z,41.67
2019-01-09T13:30:57.806Z,43.40
2019-01-09T13:33:27.252Z,41.97
2019-01-09T13:35:56.610Z,42.07
2019-01-09T13:38:26.061Z,39.00
2019-01-09T13:40:56.446Z,42.90
2019-01-09T13:43:25.914Z,42.90
2019-01-09T13:45:55.439Z,40.67
2019-01-09T13:48:24.933Z,41.87
2019-01-09T13:50:54.341Z,42.37
2019-01-09T13:53:23.784Z,41.50
2019-01-09T13:55:53.317Z,42.97
2019-01-09T13:58:22.659Z,40.20
2019-01-09T14:00:52.183Z,42.67
2019-01-09T14:03:22.622Z,41.23
2019-01-09T14:05:53.015Z,43.43
2019-01-09T14:08:22.634Z,41.80
2019-01-09T14:10:52.136Z,42.43
2019-01-09T14:13:21.542Z,42.53
2019-01-09T14:15:50.989Z,44.10
2019-01-09T14:18:20.334Z,41.63
2019-01-09T14:20:49.921Z,43.30
2019-01-09T14:23:19.391Z,43.70
2019-01-09T14:25:48.815Z,40.60
2019-01-09T14:28:18.249Z,39.50
2019-01-09T14:30:47.731Z,40.00
2019-01-09T14:33:17.193Z,40.40
2019-01-09T14:35:46.606Z,40.53
2019-01-09T14:38:15.938Z,40.80
2019-01-09T14:40:45.426Z,39.30
2019-01-09T14:43:14.917Z,39.50
2019-01-09T14:45:44.267Z,39.00
2019-01-09T14:48:13.699Z,39.50
2019-01-09T14:50:43.124Z,40.10
2019-01-09T14:53:12.572Z,40.50
2019-01-09T14:55:42.052Z,41.57
2019-01-09T14:58:11.455Z,37.53
2019-01-09T15:00:40.902Z,37.87
2019-01-09T15:03:10.455Z,39.53
2019-01-09T15:05:39.872Z,38.07
2019-01-09T15:08:09.268Z,40.33
2019-01-09T15:10:38.711Z,38.47
2019-01-09T15:13:08.090Z,37.63
2019-01-09T15:15:37.535Z,39.57
2019-01-09T15:18:06.878Z,38.50
2019-01-09T15:20:36.282Z,37.67
2019-01-09T15:23:05.741Z,38.10
2019-01-09T15:25:35.390Z,36.47
2019-01-09T15:28:04.846Z,37.13
2019-01-09T15:30:34.246Z,37.70
2019-01-09T15:33:03.613Z,33.77
2019-01-09T15:35:33.055Z,36.23
2019-01-09T15:38:02.880Z,37.20
2019-01-09T15:40:32.810Z,36.63
2019-01-09T15:43:02.229Z,36.57
2019-01-09T15:45:31.631Z,34.77
2019-01-09T15:48:01.062Z,34.07
2019-01-09T15:50:30.447Z,36.03
2019-01-09T15:53:00.129Z,33.07
2019-01-09T15:55:29.540Z,35.53
2019-01-09T15:57:58.943Z,35.87
2019-01-09T16:00:34.430Z,35.67
2019-01-09T16:03:04.614Z,39.10
2019-01-09T16:05:34.017Z,37.73
2019-01-09T16:08:03.429Z,36.87
2019-01-09T16:10:32.878Z,37.27
2019-01-09T16:13:02.234Z,39.07
2019-01-09T16:15:31.671Z,39.13
2019-01-09T16:18:01.070Z,41.63
2019-01-09T16:20:30.597Z,41.73
2019-01-09T16:22:59.940Z,37.13
2019-01-09T16:25:29.382Z,37.60
2019-01-09T16:27:58.726Z,38.93
2019-01-09T16:30:38.435Z,41.30
2019-01-09T16:33:07.798Z,38.10
2019-01-09T16:35:37.262Z,38.23
2019-01-09T16:38:06.745Z,37.43
2019-01-09T16:40:36.174Z,37.23
2019-01-09T16:43:05.647Z,37.17
2019-01-09T16:45:35.172Z,35.80
2019-01-09T16:48:04.787Z,36.03
2019-01-09T16:50:34.229Z,36.10
2019-01-09T16:53:03.594Z,37.00
2019-01-09T16:55:33.063Z,37.43
2019-01-09T16:58:02.561Z,37.43
2019-01-09T17:00:32.477Z,37.57
2019-01-09T17:03:01.964Z,36.07
2019-01-09T17:05:31.484Z,36.47
2019-01-09T17:08:01.330Z,34.60
2019-01-09T17:10:32.634Z,36.20
2019-01-09T17:13:01.949Z,34.00
2019-01-09T17:15:31.382Z,31.57
2019-01-09T17:18:01.102Z,36.57
2019-01-09T17:20:30.694Z,36.67
2019-01-09T17:23:00.338Z,39.80
2019-01-09T17:25:29.878Z,37.70
2019-01-09T17:27:59.377Z,39.43
2019-01-09T17:30:29.463Z,38.00
2019-01-09T17:32:58.999Z,37.00
2019-01-09T17:35:28.421Z,36.13
2019-01-09T17:37:57.854Z,37.43
2019-01-09T17:40:27.306Z,37.50
2019-01-09T17:42:56.889Z,38.20
2019-01-09T17:45:26.392Z,36.77
2019-01-09T17:47:55.945Z,37.33
2019-01-09T17:50:31.333Z,37.87
2019-01-09T17:53:01.123Z,37.33
2019-01-09T17:55:30.603Z,40.43
2019-01-09T17:58:00.082Z,38.03
2019-01-09T18:00:32.806Z,39.77
2019-01-09T18:03:02.742Z,40.77
2019-01-09T18:05:32.132Z,38.87
2019-01-09T18:08:10.127Z,39.90
2019-01-09T18:10:32.901Z,39.30
2019-01-09T18:13:02.429Z,40.57
2019-01-09T18:15:32.184Z,40.87
2019-01-09T18:18:01.779Z,36.93
2019-01-09T18:20:31.300Z,41.33
2019-01-09T18:23:00.729Z,37.87
2019-01-09T18:25:31.352Z,38.20
2019-01-09T18:28:00.992Z,40.80
2019-01-09T18:31:07.007Z,40.87
2019-01-09T18:33:46.356Z,39.57
2019-01-09T18:37:08.788Z,37.70
2019-01-09T18:40:26.433Z,35.73
2019-01-09T18:43:26.815Z,38.47
2019-01-09T18:46:22.026Z,39.43
2019-01-09T18:49:44.762Z,39.37
2019-01-09T18:52:26.510Z,39.80
2019-01-09T18:54:56.235Z,40.03
2019-01-09T18:57:25.636Z,39.57
2019-01-09T18:59:55.051Z,38.50
2019-01-09T19:02:24.551Z,38.37
2019-01-09T19:04:54.320Z,37.97
2019-01-09T19:07:23.692Z,39.47
2019-01-09T19:09:53.154Z,36.60
2019-01-09T19:12:22.647Z,38.33
2019-01-09T19:14:52.135Z,39.57
2019-01-09T19:17:21.765Z,39.50
2019-01-09T19:19:51.463Z,40.30
2019-01-09T19:22:21.043Z,37.80
2019-01-09T19:24:50.559Z,37.60
2019-01-09T19:27:19.983Z,36.83
2019-01-09T19:29:49.668Z,35.73
2019-01-09T19:32:19.121Z,37.57
2019-01-09T19:34:48.699Z,37.87
2019-01-09T19:37:18.199Z,38.60
2019-01-09T19:39:47.691Z,37.00
2019-01-09T19:42:17.318Z,39.30
2019-01-09T19:44:46.844Z,42.73
2019-01-09T19:47:16.384Z,44.73
2019-01-09T19:49:46.100Z,45.83
2019-01-09T19:52:15.834Z,42.77
2019-01-09T19:54:45.730Z,44.07
2019-01-09T19:57:15.157Z,40.33
2019-01-09T19:59:44.550Z,43.50
2019-01-09T20:02:14.008Z,43.60
2019-01-09T20:04:43.584Z,42.90
2019-01-09T20:07:13.092Z,43.43
2019-01-09T20:09:42.625Z,45.27
2019-01-09T20:12:12.214Z,43.13
2019-01-09T20:14:41.894Z,42.03
2019-01-09T20:17:11.278Z,41.47
2019-01-09T20:19:40.732Z,41.83
2019-01-09T20:22:10.358Z,40.73
2019-01-09T20:24:39.946Z,41.73
2019-01-09T20:27:09.437Z,40.50
2019-01-09T20:29:39.028Z,41.80
2019-01-09T20:32:08.753Z,42.00
2019-01-09T20:34:38.130Z,40.37
2019-01-09T20:37:07.712Z,41.93
2019-01-09T20:39:37.293Z,38.03
2019-01-09T20:42:06.777Z,40.50
2019-01-09T20:44:36.177Z,41.63
2019-01-09T20:47:05.747Z,38.87
2019-01-09T20:49:35.253Z,38.03
2019-01-09T20:52:05.280Z,40.27
2019-01-09T20:54:34.771Z,38.13
2019-01-09T20:57:05.423Z,38.67
2019-01-09T20:59:35.190Z,40.13
2019-01-09T21:02:04.813Z,40.63
2019-01-09T21:04:34.330Z,37.43
2019-01-09T21:07:03.869Z,41.13
2019-01-09T21:09:33.415Z,41.83
2019-01-09T21:12:03.128Z,45.07
2019-01-09T21:14:32.728Z,42.53
2019-01-09T21:17:02.155Z,42.70
2019-01-09T21:19:31.804Z,41.83
2019-01-09T21:22:01.214Z,43.17
2019-01-09T21:24:30.553Z,45.40
2019-01-09T21:27:00.363Z,45.83
2019-01-09T21:29:29.774Z,45.57
2019-01-09T21:31:59.242Z,43.63
2019-01-09T21:34:28.578Z,42.17
2019-01-09T21:36:57.966Z,40.00
2019-01-09T21:39:27.326Z,41.07
2019-01-09T21:41:56.732Z,40.83
2019-01-09T21:44:26.082Z,38.07
2019-01-09T21:46:55.470Z,41.00
2019-01-09T21:49:25.080Z,40.97
2019-01-09T21:51:54.482Z,38.57
2019-01-09T21:54:23.926Z,37.67
2019-01-09T21:56:53.344Z,39.07
2019-01-09T21:59:23.346Z,38.30
2019-01-09T22:01:53.028Z,37.10
2019-01-09T22:04:22.449Z,37.67
2019-01-09T22:06:51.895Z,37.63
2019-01-09T22:09:21.422Z,37.83
2019-01-09T22:11:50.959Z,37.00
2019-01-09T22:14:20.437Z,35.83
2019-01-09T22:16:49.890Z,37.07
2019-01-09T22:19:19.456Z,35.40
2019-01-09T22:21:49.038Z,36.67
2019-01-09T22:24:18.634Z,35.83
2019-01-09T22:26:48.057Z,36.70
2019-01-09T22:29:17.459Z,37.47
2019-01-09T22:31:47.039Z,37.30
2019-01-09T22:34:16.459Z,38.03
2019-01-09T22:36:45.906Z,36.10
2019-01-09T22:39:15.462Z,38.77
2019-01-09T22:41:45.172Z,39.33
2019-01-09T22:44:14.597Z,38.33
2019-01-09T22:46:44.056Z,37.37
2019-01-09T22:49:13.342Z,38.13
2019-01-09T22:51:42.978Z,36.37
2019-01-09T22:54:12.450Z,36.63
2019-01-09T22:56:41.991Z,35.23
2019-01-09T22:59:11.456Z,34.90
2019-01-09T23:01:40.799Z,35.43
2019-01-09T23:04:10.208Z,34.50
2019-01-09T23:06:39.684Z,35.33
2019-01-09T23:09:10.499Z,35.50
2019-01-09T23:11:39.890Z,36.13
2019-01-09T23:14:09.306Z,36.30
2019-01-09T23:16:38.687Z,35.93
2019-01-09T23:19:08.169Z,35.13
2019-01-09T23:21:37.735Z,33.53
2019-01-09T23:24:07.196Z,35.20
2019-01-09T23:26:36.588Z,34.80
2019-01-09T23:29:06.849Z,35.20
2019-01-09T23:31:36.369Z,35.10
2019-01-09T23:34:05.793Z,35.47
2019-01-09T23:36:35.195Z,36.10
2019-01-09T23:39:09.107Z,36.83
2019-01-09T23:41:38.791Z,35.77
2019-01-09T23:44:08.702Z,34.07
2019-01-09T23:46:38.204Z,34.10
2019-01-09T23:49:07.625Z,33.00
2019-01-09T23:51:37.033Z,33.83
2019-01-09T23:54:06.720Z,34.57
2019-01-09T23:56:36.337Z,38.23
2019-01-09T23:59:05.750Z,37.13
